Stephen Scott — WCW8842 — position and weather

sailwx.info

Track history (hours):
 
Tides and Currents Weather Stations Pressure Air Temp Water Temp Dewpoint Dewpoint Depression Visibility Wind Speed Wind Dir Waves Ship Positions

Stephen Scott

Owner: H A REINAUER INC, STATEN ISLAND, NY. More information available from US FCC via Universal Licensing System and Coast Guard Vessel Documentation Center.

Last reported at 2015-May-22 20:33 UTC. Time now 2015-May-22 20:37 UTC.
Position N 40°39' W 074°07'.

Length 30 m; draft 2.5 m.

Type: Towing. MMSI: 366245490.

Date/timePositionNaut miles runAvg speedWind from/ knotsBaromVisibWave heightAir tempDewpointWater temp
2015-May-22 20:33N 40°39' W 074°07'17181726.7
2015-May-22 19:33N 40°39' W 111°51'17181713.3
2015-May-22 18:33N 40°39' W 074°07'0 0.0
2015-May-22 17:33N 40°39' W 074°07'0 0.1
2015-May-22 16:33N 40°39' W 074°07'0 0.1
2015-May-22 15:29N 40°39' W 074°07'0 0.5
2015-May-22 14:33N 40°38' W 074°08'4 3.9
2015-May-22 13:33N 40°37' W 074°03'3 2.5
2015-May-22 12:33N 40°39' W 074°05'2 2.4
2015-May-22 11:33N 40°38' W 074°08'0 0.0
2015-May-22 10:33N 40°38' W 074°08'0 0.0
2015-May-22 09:33N 40°38' W 074°08'0 0.0
2015-May-22 08:33N 40°38' W 074°08'0 0.0
2015-May-22 07:33N 40°38' W 074°08'0 0.0
2015-May-22 06:33N 40°38' W 074°08'4 3.5
2015-May-22 05:33N 40°38' W 074°12'4 3.5
2015-May-22 04:33N 40°38' W 074°08'0 0.1
2015-May-22 03:33N 40°38' W 074°08'0 0.0
2015-May-22 02:34N 40°38' W 074°08'0 0.0
2015-May-22 01:33N 40°38' W 074°08'0 0.0
2015-May-22 00:33N 40°38' W 074°08'0 0.0
2015-May-21 23:33N 40°38' W 074°08'0 0.0
2015-May-21 22:34N 40°38' W 074°08'0 0.0
2015-May-21 21:33N 40°38' W 074°08'0 0.0
2015-May-21 20:33N 40°38' W 074°08'0 0.0
2015-May-21 19:33N 40°38' W 074°08'0 0.0
2015-May-21 18:33N 40°38' W 074°08'0 0.0
2015-May-21 17:33N 40°38' W 074°08'0 0.0
2015-May-21 16:33N 40°38' W 074°08'0 0.0
2015-May-21 15:33N 40°38' W 074°08'0 0.0
2015-May-21 14:33N 40°38' W 074°08'0 0.0
2015-May-21 13:33N 40°38' W 074°08'0 0.0
2015-May-21 12:33N 40°38' W 074°08'0 0.0
2015-May-21 11:33N 40°38' W 074°08'0 0.0
2015-May-21 10:33N 40°38' W 074°08'0 0.0
2015-May-21 09:33N 40°38' W 074°08'0 0.0
2015-May-21 08:33N 40°38' W 074°08'0 0.0
2015-May-21 07:33N 40°38' W 074°08'0 0.0
2015-May-21 06:33N 40°38' W 074°08'3 3.4
2015-May-21 05:33N 40°38' W 074°12'1 1.0
2015-May-21 04:33N 40°38' W 074°12'4 4.2
2015-May-21 03:33N 40°39' W 074°06'4 4.0
2015-May-21 02:33N 40°40' W 074°01'0 0.0
2015-May-21 01:33N 40°40' W 074°01'0 0.0
2015-May-21 00:33N 40°40' W 074°01'0 0.2
2015-May-20 23:33N 40°40' W 074°01'0 0.0
2015-May-20 22:33N 40°40' W 074°01'0 0.2
2015-May-20 21:33N 40°40' W 074°01'0 0.0
2015-May-20 20:33N 40°40' W 074°01'0 0.3
2015-May-20 19:33N 40°40' W 074°01'1 1.3
2015-May-20 18:33N 40°40' W 074°03'0 0.0
2015-May-20 17:33N 40°40' W 074°02'0 0.0
2015-May-20 16:33N 40°40' W 074°02'0 0.1
2015-May-20 15:33N 40°40' W 074°02'0 0.0
2015-May-20 14:33N 40°40' W 074°02'0 0.1
2015-May-20 13:33N 40°40' W 074°02'0 0.0
2015-May-20 12:33N 40°40' W 074°02'0 0.1
2015-May-20 11:33N 40°40' W 074°03'0 0.0
2015-May-20 10:33N 40°40' W 074°03'0 0.0
2015-May-20 09:33N 40°40' W 074°03'0 0.0
2015-May-20 08:33N 40°40' W 074°03'0 0.0
2015-May-20 07:33N 40°40' W 074°03'0 0.0
2015-May-20 06:33N 40°40' W 074°03'0 0.0
2015-May-20 05:30N 40°40' W 074°03'0 0.0
2015-May-20 04:33N 40°40' W 074°03'1 1.2
2015-May-20 03:33N 40°40' W 074°01'0 0.0
2015-May-20 02:33N 40°40' W 074°01'0 0.0
2015-May-20 01:34N 40°40' W 074°01'0 0.0
2015-May-20 00:33N 40°40' W 074°01'0 0.0
2015-May-19 23:34N 40°40' W 074°01'4 3.6
2015-May-19 22:33N 40°37' W 074°03'4 4.4
2015-May-19 21:33N 40°32' W 074°01'8 7.6
2015-May-19 20:32N 40°27' W 073°54'7 7.3
2015-May-19 19:33N 40°20' W 073°54'8 7.4
2015-May-19 18:31N 40°12' W 073°55'8 7.6
2015-May-19 17:28N 40°04' W 073°56'8 7.7
2015-May-19 16:27N 39°57' W 073°56'7 7.7
2015-May-19 15:33N 39°50' W 073°56'7 7.5
2015-May-19 14:33N 39°43' W 073°59'8 7.7
2015-May-19 13:33N 39°36' W 074°04'16 7.7
2015-May-19 11:31N 39°22' W 074°14'8 7.7
2015-May-19 10:30N 39°17' W 074°20'7 7.6
2015-May-19 09:33N 39°11' W 074°26'8 7.6
2015-May-19 08:32N 39°05' W 074°33'8 7.6
2015-May-19 07:29N 38°60' W 074°41'9 7.6
2015-May-19 06:15N 38°52' W 074°47'5 7.7
2015-May-19 05:33N 38°49' W 074°53'8 8.0
2015-May-19 04:33N 38°51' W 075°03'9 8.9
2015-May-19 03:33N 38°59' W 075°08'8 7.9
2015-May-19 02:33N 39°06' W 075°12'7 6.7
2015-May-19 01:33N 39°12' W 075°17'6 5.9
2015-May-19 00:33N 39°17' W 075°21'7 6.6
2015-May-18 23:33N 39°21' W 075°27'8 8.1
2015-May-18 22:33N 39°28' W 075°34'6 6.0
2015-May-18 21:34N 39°33' W 075°35'7 6.8
2015-May-18 20:34N 39°32' W 075°44'6 6.1
2015-May-18 19:33N 39°32' W 075°52'6 5.8
2015-May-18 18:33N 39°28' W 075°58'6 6.3
2015-May-18 17:33N 39°24' W 076°04'6 6.3
2015-May-18 16:33N 39°21' W 076°11'6 6.4
2015-May-18 15:33N 39°15' W 076°14'13 6.0
2015-May-18 13:22N 39°12' W 076°31'3 3.5
2015-May-18 12:27N 39°14' W 076°34'0 0.4
2015-May-18 11:33N 39°14' W 076°33'3 2.9
2015-May-18 10:33N 39°17' W 076°36'0 0.0
2015-May-18 09:33N 39°17' W 076°36'0 0.0
2015-May-18 08:29N 39°17' W 076°36'0 0.0
2015-May-18 07:33N 39°17' W 076°36'0 0.0
2015-May-18 06:33N 39°17' W 076°36'0 0.0
2015-May-18 05:33N 39°17' W 076°36'0 0.0
2015-May-18 04:34N 39°17' W 076°36'0 0.0
2015-May-18 03:33N 39°17' W 076°36'0 0.0
2015-May-18 02:33N 39°17' W 076°36'0 0.1
2015-May-18 01:33N 39°17' W 076°36'1 1.1
2015-May-18 00:30N 39°16' W 076°35'2 2.0
2015-May-17 23:33N 39°14' W 076°34'4 3.3
2015-May-17 22:26N 39°12' W 076°30'12 6.5
2015-May-17 20:32N 39°14' W 076°14'8 8.3
2015-May-17 19:33N 39°21' W 076°09'8 8.4
2015-May-17 18:33N 39°26' W 076°01'9 8.5
2015-May-17 17:33N 39°32' W 075°52'9 8.8
2015-May-17 16:33N 39°33' W 075°41'6 6.2
2015-May-17 15:33N 39°32' W 075°33'8 7.8
2015-May-17 14:34N 39°24' W 075°30'1010.1
2015-May-17 13:33N 39°17' W 075°21'10 9.9
2015-May-17 12:33N 39°09' W 075°14'10 9.5
2015-May-17 11:33N 39°00' W 075°09'7 6.9
2015-May-17 10:33N 38°54' W 075°05'6 5.7
2015-May-17 09:33N 38°49' W 075°02'7 7.5
2015-May-17 08:33N 38°50' W 074°52'14 6.6
2015-May-17 06:25N 39°00' W 074°40'7 6.6
2015-May-17 05:20N 39°05' W 074°34'5 6.5
2015-May-17 04:33N 39°09' W 074°29'7 6.6
2015-May-17 03:32N 39°14' W 074°23'8 6.3
2015-May-17 02:16N 39°20' W 074°17'11 6.2
2015-May-17 00:31N 39°29' W 074°09'6 6.6
2015-May-16 23:33N 39°35' W 074°05'7 6.7
2015-May-16 22:33N 39°41' W 074°01'7 6.5
2015-May-16 21:32N 39°47' W 073°58'7 6.6
2015-May-16 20:33N 39°53' W 073°57'7 6.4
2015-May-16 19:25N 40°00' W 073°55'6 6.6
2015-May-16 18:31N 40°06' W 073°55'7 6.7
2015-May-16 17:32N 40°13' W 073°55'8 6.6
2015-May-16 16:16N 40°21' W 073°55'5 7.0
2015-May-16 15:33N 40°26' W 073°54'7 7.2
2015-May-16 14:33N 40°31' W 074°00'5 5.2
2015-May-16 13:33N 40°36' W 074°02'6 5.5
2015-May-16 12:33N 40°39' W 074°09'7 6.1
2015-May-16 11:21N 40°33' W 074°15'2 0.6
2015-May-16 07:33N 40°34' W 074°13'5 4.9
2015-May-16 06:33N 40°39' W 074°10'2 1.7
2015-May-16 05:33N 40°38' W 074°08'0 0.0
2015-May-16 04:33N 40°38' W 074°08'0 0.0
2015-May-16 03:33N 40°38' W 074°08'1 1.0
2015-May-16 02:33N 40°39' W 074°07'0 0.0
2015-May-16 01:33N 40°39' W 074°07'0 0.0
2015-May-16 00:33N 40°39' W 074°07'0 0.0
2015-May-15 23:33N 40°39' W 074°07'0 0.0
2015-May-15 22:30N 40°39' W 074°07'1 1.0
2015-May-15 21:33N 40°38' W 074°08'0 0.0
2015-May-15 20:33N 40°38' W 074°08'0 0.0
2015-May-15 19:33N 40°38' W 074°08'0 0.0
2015-May-15 18:33N 40°38' W 074°08'0 0.0
2015-May-15 17:33N 40°38' W 074°08'0 0.0
2015-May-15 16:33N 40°38' W 074°08'0 0.0
2015-May-15 15:33N 40°38' W 074°08'0 0.0
2015-May-15 14:33N 40°38' W 074°08'0 0.0
2015-May-15 13:34N 40°38' W 074°08'0 0.0
2015-May-15 12:33N 40°38' W 074°08'0 0.4
2015-May-15 11:33N 40°39' W 074°07'0 0.4
2015-May-15 10:33N 40°38' W 074°08'0 0.0
2015-May-15 09:33N 40°38' W 074°08'5 4.6
2015-May-15 08:33N 40°40' W 074°02'1 0.8
2015-May-15 07:33N 40°40' W 074°01'0 0.0
2015-May-15 06:33N 40°40' W 074°01'0 0.0
2015-May-15 05:33N 40°40' W 074°01'0 0.0
2015-May-15 04:33N 40°40' W 074°01'0 0.0
2015-May-15 03:33N 40°40' W 074°01'0 0.0
2015-May-15 02:33N 40°40' W 074°01'0 0.0
2015-May-15 01:34N 40°40' W 074°01'0 0.0
2015-May-15 00:33N 40°40' W 074°01'0 0.0
2015-May-14 23:33N 40°40' W 074°01'0 0.0
2015-May-14 22:33N 40°40' W 074°01'0 0.0
2015-May-14 21:33N 40°40' W 074°01'0 0.3
2015-May-14 20:33N 40°40' W 074°01'8 7.5
2015-May-14 19:33N 40°34' W 073°56'9 7.2
2015-May-14 18:15N 40°38' W 073°45'0 0.1
2015-May-14 15:07N 40°38' W 073°45'13 1.7
2015-May-14 07:33N 40°35' W 074°02'1 0.6
2015-May-14 06:32N 40°36' W 074°02'0 0.1
2015-May-14 05:33N 40°36' W 074°01'0 0.0
2015-May-14 04:33N 40°36' W 074°01'0 0.0
2015-May-14 03:33N 40°36' W 074°01'2 1.9
2015-May-14 02:33N 40°37' W 074°03'7 6.6
2015-May-14 01:33N 40°38' W 074°12'6 4.7
2015-May-14 00:13N 40°33' W 074°15'0 0.2
2015-May-13 23:32N 40°33' W 074°15'0 0.0
2015-May-13 22:33N 40°33' W 074°15'0 0.1
2015-May-13 21:24N 40°33' W 074°15'0 0.2
2015-May-13 18:32N 40°33' W 074°15'0 0.0
2015-May-13 17:24N 40°33' W 074°15'0 0.0
2015-May-13 16:23N 40°33' W 074°15'0 0.0
2015-May-13 15:26N 40°33' W 074°15'0 0.5
2015-May-13 14:34N 40°33' W 074°15'1 1.2
2015-May-13 13:31N 40°33' W 074°14'5 5.1
2015-May-13 12:33N 40°38' W 074°12'7 6.9
2015-May-13 11:33N 40°40' W 074°03'2 1.6
2015-May-13 10:33N 40°40' W 074°01'0 0.0
2015-May-13 09:33N 40°40' W 074°01'0 0.0
2015-May-13 08:33N 40°40' W 074°01'0 0.0
2015-May-13 07:34N 40°40' W 074°01'0 0.0
2015-May-13 06:33N 40°40' W 074°01'6 6.0
2015-May-13 05:33N 40°39' W 074°09'8 7.8
2015-May-13 04:34N 40°32' W 074°15'2 2.3
2015-May-13 03:33N 40°34' W 074°13'7 7.3
2015-May-13 02:33N 40°39' W 074°06'4 3.9
2015-May-13 01:33N 40°40' W 074°01'0 0.0
2015-May-13 00:33N 40°40' W 074°01'0 0.0
2015-May-12 23:33N 40°40' W 074°01'0 0.0
2015-May-12 22:33N 40°40' W 074°01'0 0.0
2015-May-12 21:33N 40°40' W 074°01'0 0.1
2015-May-12 20:33N 40°40' W 074°01'  
Track history (hours):
 
Tides and Currents Weather Stations Pressure Air Temp Water Temp Dewpoint Dewpoint Depression Visibility Wind Speed Wind Dir Waves Ship Positions

Stephen Scott

Owner: H A REINAUER INC, STATEN ISLAND, NY. More information available from US FCC via Universal Licensing System and Coast Guard Vessel Documentation Center.

Last reported at 2015-May-22 20:33 UTC. Time now 2015-May-22 20:37 UTC.
Position N 40°39' W 074°07'.

Length 30 m; draft 2.5 m.

Type: Towing. MMSI: 366245490.

Date/timePositionNaut miles runAvg speedWind from/ knotsBaromVisibWave heightAir tempDewpointWater temp
2015-May-22 20:33N 40°39' W 074°07'17181726.7
2015-May-22 19:33N 40°39' W 111°51'17181713.3
2015-May-22 18:33N 40°39' W 074°07'0 0.0
2015-May-22 17:33N 40°39' W 074°07'0 0.1
2015-May-22 16:33N 40°39' W 074°07'0 0.1
2015-May-22 15:29N 40°39' W 074°07'0 0.5
2015-May-22 14:33N 40°38' W 074°08'4 3.9
2015-May-22 13:33N 40°37' W 074°03'3 2.5
2015-May-22 12:33N 40°39' W 074°05'2 2.4
2015-May-22 11:33N 40°38' W 074°08'0 0.0
2015-May-22 10:33N 40°38' W 074°08'0 0.0
2015-May-22 09:33N 40°38' W 074°08'0 0.0
2015-May-22 08:33N 40°38' W 074°08'0 0.0
2015-May-22 07:33N 40°38' W 074°08'0 0.0
2015-May-22 06:33N 40°38' W 074°08'4 3.5
2015-May-22 05:33N 40°38' W 074°12'4 3.5
2015-May-22 04:33N 40°38' W 074°08'0 0.1
2015-May-22 03:33N 40°38' W 074°08'0 0.0
2015-May-22 02:34N 40°38' W 074°08'0 0.0
2015-May-22 01:33N 40°38' W 074°08'0 0.0
2015-May-22 00:33N 40°38' W 074°08'0 0.0
2015-May-21 23:33N 40°38' W 074°08'0 0.0
2015-May-21 22:34N 40°38' W 074°08'0 0.0
2015-May-21 21:33N 40°38' W 074°08'0 0.0
2015-May-21 20:33N 40°38' W 074°08'0 0.0
2015-May-21 19:33N 40°38' W 074°08'0 0.0
2015-May-21 18:33N 40°38' W 074°08'0 0.0
2015-May-21 17:33N 40°38' W 074°08'0 0.0
2015-May-21 16:33N 40°38' W 074°08'0 0.0
2015-May-21 15:33N 40°38' W 074°08'0 0.0
2015-May-21 14:33N 40°38' W 074°08'0 0.0
2015-May-21 13:33N 40°38' W 074°08'0 0.0
2015-May-21 12:33N 40°38' W 074°08'0 0.0
2015-May-21 11:33N 40°38' W 074°08'0 0.0
2015-May-21 10:33N 40°38' W 074°08'0 0.0
2015-May-21 09:33N 40°38' W 074°08'0 0.0
2015-May-21 08:33N 40°38' W 074°08'0 0.0
2015-May-21 07:33N 40°38' W 074°08'0 0.0
2015-May-21 06:33N 40°38' W 074°08'3 3.4
2015-May-21 05:33N 40°38' W 074°12'1 1.0
2015-May-21 04:33N 40°38' W 074°12'4 4.2
2015-May-21 03:33N 40°39' W 074°06'4 4.0
2015-May-21 02:33N 40°40' W 074°01'0 0.0
2015-May-21 01:33N 40°40' W 074°01'0 0.0
2015-May-21 00:33N 40°40' W 074°01'0 0.2
2015-May-20 23:33N 40°40' W 074°01'0 0.0
2015-May-20 22:33N 40°40' W 074°01'0 0.2
2015-May-20 21:33N 40°40' W 074°01'0 0.0
2015-May-20 20:33N 40°40' W 074°01'0 0.3
2015-May-20 19:33N 40°40' W 074°01'1 1.3
2015-May-20 18:33N 40°40' W 074°03'0 0.0
2015-May-20 17:33N 40°40' W 074°02'0 0.0
2015-May-20 16:33N 40°40' W 074°02'0 0.1
2015-May-20 15:33N 40°40' W 074°02'0 0.0
2015-May-20 14:33N 40°40' W 074°02'0 0.1
2015-May-20 13:33N 40°40' W 074°02'0 0.0
2015-May-20 12:33N 40°40' W 074°02'0 0.1
2015-May-20 11:33N 40°40' W 074°03'0 0.0
2015-May-20 10:33N 40°40' W 074°03'0 0.0
2015-May-20 09:33N 40°40' W 074°03'0 0.0
2015-May-20 08:33N 40°40' W 074°03'0 0.0
2015-May-20 07:33N 40°40' W 074°03'0 0.0
2015-May-20 06:33N 40°40' W 074°03'0 0.0
2015-May-20 05:30N 40°40' W 074°03'0 0.0
2015-May-20 04:33N 40°40' W 074°03'1 1.2
2015-May-20 03:33N 40°40' W 074°01'0 0.0
2015-May-20 02:33N 40°40' W 074°01'0 0.0
2015-May-20 01:34N 40°40' W 074°01'0 0.0
2015-May-20 00:33N 40°40' W 074°01'0 0.0
2015-May-19 23:34N 40°40' W 074°01'4 3.6
2015-May-19 22:33N 40°37' W 074°03'4 4.4
2015-May-19 21:33N 40°32' W 074°01'8 7.6
2015-May-19 20:32N 40°27' W 073°54'7 7.3
2015-May-19 19:33N 40°20' W 073°54'8 7.4
2015-May-19 18:31N 40°12' W 073°55'8 7.6
2015-May-19 17:28N 40°04' W 073°56'8 7.7
2015-May-19 16:27N 39°57' W 073°56'7 7.7
2015-May-19 15:33N 39°50' W 073°56'7 7.5
2015-May-19 14:33N 39°43' W 073°59'8 7.7
2015-May-19 13:33N 39°36' W 074°04'16 7.7
2015-May-19 11:31N 39°22' W 074°14'8 7.7
2015-May-19 10:30N 39°17' W 074°20'7 7.6
2015-May-19 09:33N 39°11' W 074°26'8 7.6
2015-May-19 08:32N 39°05' W 074°33'8 7.6
2015-May-19 07:29N 38°60' W 074°41'9 7.6
2015-May-19 06:15N 38°52' W 074°47'5 7.7
2015-May-19 05:33N 38°49' W 074°53'8 8.0
2015-May-19 04:33N 38°51' W 075°03'9 8.9
2015-May-19 03:33N 38°59' W 075°08'8 7.9
2015-May-19 02:33N 39°06' W 075°12'7 6.7
2015-May-19 01:33N 39°12' W 075°17'6 5.9
2015-May-19 00:33N 39°17' W 075°21'7 6.6
2015-May-18 23:33N 39°21' W 075°27'8 8.1
2015-May-18 22:33N 39°28' W 075°34'6 6.0
2015-May-18 21:34N 39°33' W 075°35'7 6.8
2015-May-18 20:34N 39°32' W 075°44'6 6.1
2015-May-18 19:33N 39°32' W 075°52'6 5.8
2015-May-18 18:33N 39°28' W 075°58'6 6.3
2015-May-18 17:33N 39°24' W 076°04'6 6.3
2015-May-18 16:33N 39°21' W 076°11'6 6.4
2015-May-18 15:33N 39°15' W 076°14'13 6.0
2015-May-18 13:22N 39°12' W 076°31'3 3.5
2015-May-18 12:27N 39°14' W 076°34'0 0.4
2015-May-18 11:33N 39°14' W 076°33'3 2.9
2015-May-18 10:33N 39°17' W 076°36'0 0.0
2015-May-18 09:33N 39°17' W 076°36'0 0.0
2015-May-18 08:29N 39°17' W 076°36'0 0.0
2015-May-18 07:33N 39°17' W 076°36'0 0.0
2015-May-18 06:33N 39°17' W 076°36'0 0.0
2015-May-18 05:33N 39°17' W 076°36'0 0.0
2015-May-18 04:34N 39°17' W 076°36'0 0.0
2015-May-18 03:33N 39°17' W 076°36'0 0.0
2015-May-18 02:33N 39°17' W 076°36'0 0.1
2015-May-18 01:33N 39°17' W 076°36'1 1.1
2015-May-18 00:30N 39°16' W 076°35'2 2.0
2015-May-17 23:33N 39°14' W 076°34'4 3.3
2015-May-17 22:26N 39°12' W 076°30'12 6.5
2015-May-17 20:32N 39°14' W 076°14'8 8.3
2015-May-17 19:33N 39°21' W 076°09'8 8.4
2015-May-17 18:33N 39°26' W 076°01'9 8.5
2015-May-17 17:33N 39°32' W 075°52'9 8.8
2015-May-17 16:33N 39°33' W 075°41'6 6.2
2015-May-17 15:33N 39°32' W 075°33'8 7.8
2015-May-17 14:34N 39°24' W 075°30'1010.1
2015-May-17 13:33N 39°17' W 075°21'10 9.9
2015-May-17 12:33N 39°09' W 075°14'10 9.5
2015-May-17 11:33N 39°00' W 075°09'7 6.9
2015-May-17 10:33N 38°54' W 075°05'6 5.7
2015-May-17 09:33N 38°49' W 075°02'7 7.5
2015-May-17 08:33N 38°50' W 074°52'14 6.6
2015-May-17 06:25N 39°00' W 074°40'7 6.6
2015-May-17 05:20N 39°05' W 074°34'5 6.5
2015-May-17 04:33N 39°09' W 074°29'7 6.6
2015-May-17 03:32N 39°14' W 074°23'8 6.3
2015-May-17 02:16N 39°20' W 074°17'11 6.2
2015-May-17 00:31N 39°29' W 074°09'6 6.6
2015-May-16 23:33N 39°35' W 074°05'7 6.7
2015-May-16 22:33N 39°41' W 074°01'7 6.5
2015-May-16 21:32N 39°47' W 073°58'7 6.6
2015-May-16 20:33N 39°53' W 073°57'7 6.4
2015-May-16 19:25N 40°00' W 073°55'6 6.6
2015-May-16 18:31N 40°06' W 073°55'7 6.7
2015-May-16 17:32N 40°13' W 073°55'8 6.6
2015-May-16 16:16N 40°21' W 073°55'5 7.0
2015-May-16 15:33N 40°26' W 073°54'7 7.2
2015-May-16 14:33N 40°31' W 074°00'5 5.2
2015-May-16 13:33N 40°36' W 074°02'6 5.5
2015-May-16 12:33N 40°39' W 074°09'7 6.1
2015-May-16 11:21N 40°33' W 074°15'2 0.6
2015-May-16 07:33N 40°34' W 074°13'5 4.9
2015-May-16 06:33N 40°39' W 074°10'2 1.7
2015-May-16 05:33N 40°38' W 074°08'0 0.0
2015-May-16 04:33N 40°38' W 074°08'0 0.0
2015-May-16 03:33N 40°38' W 074°08'1 1.0
2015-May-16 02:33N 40°39' W 074°07'0 0.0
2015-May-16 01:33N 40°39' W 074°07'0 0.0
2015-May-16 00:33N 40°39' W 074°07'0 0.0
2015-May-15 23:33N 40°39' W 074°07'0 0.0
2015-May-15 22:30N 40°39' W 074°07'1 1.0
2015-May-15 21:33N 40°38' W 074°08'0 0.0
2015-May-15 20:33N 40°38' W 074°08'0 0.0
2015-May-15 19:33N 40°38' W 074°08'0 0.0
2015-May-15 18:33N 40°38' W 074°08'0 0.0
2015-May-15 17:33N 40°38' W 074°08'0 0.0
2015-May-15 16:33N 40°38' W 074°08'0 0.0
2015-May-15 15:33N 40°38' W 074°08'0 0.0
2015-May-15 14:33N 40°38' W 074°08'0 0.0
2015-May-15 13:34N 40°38' W 074°08'0 0.0
2015-May-15 12:33N 40°38' W 074°08'0 0.4
2015-May-15 11:33N 40°39' W 074°07'0 0.4
2015-May-15 10:33N 40°38' W 074°08'0 0.0
2015-May-15 09:33N 40°38' W 074°08'5 4.6
2015-May-15 08:33N 40°40' W 074°02'1 0.8
2015-May-15 07:33N 40°40' W 074°01'0 0.0
2015-May-15 06:33N 40°40' W 074°01'0 0.0
2015-May-15 05:33N 40°40' W 074°01'0 0.0
2015-May-15 04:33N 40°40' W 074°01'0 0.0
2015-May-15 03:33N 40°40' W 074°01'0 0.0
2015-May-15 02:33N 40°40' W 074°01'0 0.0
2015-May-15 01:34N 40°40' W 074°01'0 0.0
2015-May-15 00:33N 40°40' W 074°01'0 0.0
2015-May-14 23:33N 40°40' W 074°01'0 0.0
2015-May-14 22:33N 40°40' W 074°01'0 0.0
2015-May-14 21:33N 40°40' W 074°01'0 0.3
2015-May-14 20:33N 40°40' W 074°01'8 7.5
2015-May-14 19:33N 40°34' W 073°56'9 7.2
2015-May-14 18:15N 40°38' W 073°45'0 0.1
2015-May-14 15:07N 40°38' W 073°45'13 1.7
2015-May-14 07:33N 40°35' W 074°02'1 0.6
2015-May-14 06:32N 40°36' W 074°02'0 0.1
2015-May-14 05:33N 40°36' W 074°01'0 0.0
2015-May-14 04:33N 40°36' W 074°01'0 0.0
2015-May-14 03:33N 40°36' W 074°01'2 1.9
2015-May-14 02:33N 40°37' W 074°03'7 6.6
2015-May-14 01:33N 40°38' W 074°12'6 4.7
2015-May-14 00:13N 40°33' W 074°15'0 0.2
2015-May-13 23:32N 40°33' W 074°15'0 0.0
2015-May-13 22:33N 40°33' W 074°15'0 0.1
2015-May-13 21:24N 40°33' W 074°15'0 0.2
2015-May-13 18:32N 40°33' W 074°15'0 0.0
2015-May-13 17:24N 40°33' W 074°15'0 0.0
2015-May-13 16:23N 40°33' W 074°15'0 0.0
2015-May-13 15:26N 40°33' W 074°15'0 0.5
2015-May-13 14:34N 40°33' W 074°15'1 1.2
2015-May-13 13:31N 40°33' W 074°14'5 5.1
2015-May-13 12:33N 40°38' W 074°12'7 6.9
2015-May-13 11:33N 40°40' W 074°03'2 1.6
2015-May-13 10:33N 40°40' W 074°01'0 0.0
2015-May-13 09:33N 40°40' W 074°01'0 0.0
2015-May-13 08:33N 40°40' W 074°01'0 0.0
2015-May-13 07:34N 40°40' W 074°01'0 0.0
2015-May-13 06:33N 40°40' W 074°01'6 6.0
2015-May-13 05:33N 40°39' W 074°09'8 7.8
2015-May-13 04:34N 40°32' W 074°15'2 2.3
2015-May-13 03:33N 40°34' W 074°13'7 7.3
2015-May-13 02:33N 40°39' W 074°06'4 3.9
2015-May-13 01:33N 40°40' W 074°01'0 0.0
2015-May-13 00:33N 40°40' W 074°01'0 0.0
2015-May-12 23:33N 40°40' W 074°01'0 0.0
2015-May-12 22:33N 40°40' W 074°01'0 0.0
2015-May-12 21:33N 40°40' W 074°01'0 0.1
2015-May-12 20:33N 40°40' W 074°01'  

Dump ship's entire track history